Skip Navigation Links
NOAA logo - Click to go to the NOAA homepage
NOAA's National Weather Service
Alaska Aviation Weather Unit
  NWS logo - Click to go to the NWS homepage
Left Navbar Graphic     01 AKDT = 09 GMT

   
NOAA is celebrating 200 years of science, service, and stewardship. Visit the NOAA 200th celebration Web site to learn more.
USA.gov is the U.S. Government's official Web portal to all Federal, state and local government Web resources and services.
Facebook
NWS on Facebook

Important Change Regarding the AAWU Web Presence

 

Over the last several months, the AAWU has been working to navigate its webpages to a nationally supported server. Security, as well as other needs, have necessitated the change.  We have been given an extension for the site changeover while we diligently work at addressing feedback received. As of July 14, 2017, aawu.arh.noaa.gov will be discontinued. The new AAWU web address is weather.gov/aawu. It is now live and will run in-parallel with the old site until it is discontinued on July 14, 2017. Please continue to send any feedback or questions regarding the new webpages to nws.ar.aawu.webauthors@noaa.gov.  Thank you for your patience during this time of transition.
AAWU Home :: Display TAF Add Bookmark
METAR PAAK 190316Z 09005KT 10SM OVC029 13/09 A2958 RMK AO1=

METAR PAAK 190336Z 09009G14KT 040V110 10SM OVC029 13/09 A2958 RMK
 AO1=

METAR PAAK 190356Z 10010KT 080V140 10SM OVC029 12/07 A2958 RMK AO1=

METAR PAAK 190416Z 13010G16KT 10SM OVC031 12/08 A2957 RMK AO1=

METAR PAAK 190436Z 10008G14KT 10SM OVC031 13/08 A2957 RMK AO1=

METAR PAAK 190456Z 11012KT 10SM OVC031 12/08 A2957 RMK AO1=

METAR PAAK 190516Z 11009KT 10SM BKN031 OVC042 12/07 A2957 RMK AO1=

METAR PAAK 190536Z 13003G16KT 10SM BKN031 BKN039 OVC045 12/08 A2957 RMK
     AO1=

METAR PAAK 190556Z 09007KT 090V150 10SM BKN029 OVC036 12/08 A2957 RMK
     AO1 10130 20120 57003=

METAR PAAK 190616Z 13005KT 10SM OVC027 12/08 A2957 RMK AO1=

METAR PAAK 190636Z 16010KT 10SM FEW025 OVC029 13/08 A2957 RMK AO1=

METAR PAAK 190656Z 13003KT 10SM SCT031 OVC041 12/07 A2957 RMK AO1=

METAR PAAK 190716Z 16006KT 10SM FEW032 BKN041 OVC050 12/07 A2957 RMK
     AO1=

METAR PAAK 190736Z 15009KT 10SM FEW032 BKN041 OVC050 11/07 A2957 RMK
     AO1=

METAR PAAK 190756Z 14007KT 10SM FEW041 BKN050 OVC080 11/08 A2957 RMK
     AO1=

METAR PAAK 190816Z 00000KT 10SM SCT050 OVC080 11/08 A2959 RMK AO1=

METAR PAAK 190836Z 18005KT 10SM SCT060 OVC080 11/07 A2959 RMK AO1=

METAR PAAK 190856Z 00000KT 10SM BKN080 11/08 A2959 RMK AO1 52007=


NOAA's National Weather Service
Alaska Aviation Weather Unit
6930 Sand Lake Road
Anchorage, AK 99502-1845
Disclaimer
Credits
Glossary
Privacy Policy
About Us
Career Opportunities
Contact AAWU Internet Services Site last modified: April, 17th 2012